Time;durP1;ratioP1;P1;durP2;ratioP2;P2;SDS_P1;SDS_P2;PMS_P1;PMS_P2;Temp;Humidity;BMP_temperature;BMP_pressure;BME280_temperature;BME280_humidity;BME280_pressure;Samples;Min_cycle;Max_cycle;Signal;HPM_P1;HPM_P2
2022/08/11 00:01:19;;;;;;;12.07;9.93;;;;;;;21.71;77.17;99083.88;5029702;28;20206;-83
2022/08/11 00:03:53;;;;;;;15.03;10.00;;;;;;;22.16;77.43;99173.00;5020875;28;20174;-84
2022/08/11 00:06:38;;;;;;;10.47;9.17;;;;;;;22.07;77.60;99151.56;5015131;28;20162;-83
2022/08/11 00:09:07;;;;;;;14.07;10.07;;;;;;;22.07;78.12;99159.28;5014681;28;20170;-83
2022/08/11 00:11:35;;;;;;;12.23;10.13;;;;;;;22.02;78.40;99163.63;5014608;28;20171;-83
2022/08/11 00:14:03;;;;;;;12.37;10.20;;;;;;;21.98;78.34;99154.19;5014569;28;20159;-83
2022/08/11 00:16:29;;;;;;;12.67;10.10;;;;;;;21.85;79.44;99165.38;5012550;28;20198;-83
2022/08/11 00:18:57;;;;;;;14.17;10.30;;;;;;;21.53;79.68;99107.16;5014361;28;20167;-82
2022/08/11 00:21:25;;;;;;;11.57;10.30;;;;;;;21.72;80.80;99156.88;5014405;28;20196;-82
2022/08/11 00:23:58;;;;;;;12.20;10.40;;;;;;;21.13;82.19;99085.00;5014399;28;20193;-82
2022/08/11 00:26:26;;;;;;;11.20;10.00;;;;;;;21.54;82.32;99160.38;5014433;28;20277;-82
2022/08/11 00:28:52;;;;;;;13.53;11.00;;;;;;;21.54;82.78;99159.50;5014873;28;20201;-81
2022/08/11 00:31:28;;;;;;;11.90;10.20;;;;;;;21.05;83.71;99117.59;5014465;28;20183;-82
2022/08/11 00:33:55;;;;;;;11.77;10.43;;;;;;;19.15;85.11;98830.75;5014260;28;20174;-82
2022/08/11 00:36:26;;;;;;;11.70;10.30;;;;;;;20.41;86.22;99055.97;5014028;28;20178;-82
2022/08/11 00:38:54;;;;;;;13.57;10.60;;;;;;;20.95;87.38;99154.53;5014006;28;20543;-84
2022/08/11 00:41:44;;;;;;;14.30;10.87;;;;;;;20.98;87.99;99159.69;5013994;28;20194;-82
2022/08/11 00:44:18;;;;;;;13.67;11.07;;;;;;;20.98;88.67;99162.25;5014230;28;20174;-82
2022/08/11 00:47:14;;;;;;;13.13;10.77;;;;;;;20.87;90.30;99163.97;5014192;28;20225;-83
2022/08/11 00:49:42;;;;;;;13.10;11.17;;;;;;;20.94;90.24;99170.81;5013858;28;20269;-83
2022/08/11 00:52:28;;;;;;;15.17;10.93;;;;;;;20.82;90.90;99170.84;5014133;28;20179;-83
2022/08/11 00:55:24;;;;;;;13.43;11.60;;;;;;;20.88;90.67;99171.69;5014226;28;20193;-83
2022/08/11 00:58:17;;;;;;;12.83;11.43;;;;;;;20.44;91.86;99116.84;5014086;28;20198;-83
2022/08/11 01:00:58;;;;;;;14.43;11.30;;;;;;;20.86;91.63;99175.97;5013852;28;20304;-84
2022/08/11 01:03:35;;;;;;;14.87;11.70;;;;;;;20.85;91.86;99168.28;5014026;28;20161;-83
2022/08/11 01:06:42;;;;;;;15.30;11.80;;;;;;;20.73;92.85;99169.13;5014512;28;20521;-83
2022/08/11 01:09:31;;;;;;;14.30;12.17;;;;;;;20.76;92.87;99170.84;5013622;28;20663;-83
2022/08/11 01:12:34;;;;;;;15.00;12.10;;;;;;;20.90;91.95;99164.84;5013836;28;20166;-83
2022/08/11 01:15:24;;;;;;;14.70;12.13;;;;;;;21.00;91.24;99160.50;5014204;28;20646;-83
2022/08/11 01:18:14;;;;;;;13.27;11.87;;;;;;;21.04;90.29;99157.94;5013481;28;20163;-83
2022/08/11 01:20:58;;;;;;;13.27;11.73;;;;;;;21.02;89.97;99157.06;5013460;28;20198;-82
2022/08/11 01:23:30;;;;;;;14.63;11.57;;;;;;;20.97;90.07;99155.38;5012086;28;20186;-82
2022/08/11 01:26:49;;;;;;;13.33;11.63;;;;;;;20.91;89.75;99156.25;5013993;28;20163;-82
2022/08/11 01:29:52;;;;;;;14.43;11.73;;;;;;;21.02;89.23;99153.66;5015912;28;20178;-82
2022/08/11 01:32:41;;;;;;;14.57;11.93;;;;;;;20.94;89.44;99153.66;5017290;28;20190;-82
2022/08/11 01:35:06;;;;;;;14.73;12.03;;;;;;;20.92;89.09;99152.81;5017264;28;20189;-82
2022/08/11 01:37:41;;;;;;;13.30;11.90;;;;;;;20.88;88.96;99155.38;5017374;28;20170;-82
2022/08/11 01:40:15;;;;;;;18.50;11.77;;;;;;;20.94;88.34;99161.38;5017385;28;20177;-82
2022/08/11 01:46:13;;;;;;;13.70;11.67;;;;;;;20.96;87.88;99154.50;5018075;28;20221;-82
2022/08/11 01:48:52;;;;;;;12.77;11.47;;;;;;;21.04;87.38;99141.66;5017880;28;20635;-83
2022/08/11 01:51:47;;;;;;;13.77;11.53;;;;;;;21.17;86.91;99151.06;5015813;28;20218;-83
2022/08/11 01:54:39;;;;;;;13.63;11.20;;;;;;;21.14;86.21;99156.22;5017465;28;20246;-83
2022/08/11 01:57:35;;;;;;;16.53;10.93;;;;;;;21.22;86.18;99156.22;5017901;28;20693;-82
2022/08/11 02:00:25;;;;;;;14.63;10.70;;;;;;;20.74;85.95;99090.25;5017766;28;20174;-82
2022/08/11 02:03:09;;;;;;;12.30;10.33;;;;;;;21.16;85.59;99150.22;5017585;28;20249;-83
2022/08/11 02:05:34;;;;;;;11.90;10.40;;;;;;;21.09;85.73;99147.66;5017207;28;20170;-83
2022/08/11 02:08:21;;;;;;;14.03;10.47;;;;;;;21.16;85.44;99142.50;5016619;28;20246;-82
2022/08/11 02:13:55;;;;;;;16.20;11.00;;;;;;;20.51;83.94;98982.25;5017352;28;20178;-83
2022/08/11 02:16:52;;;;;;;15.67;12.00;;;;;;;21.55;83.61;99150.94;5015918;28;20179;-84
2022/08/11 02:25:00;;;;;;;14.17;11.30;;;;;;;21.74;82.09;99148.28;5017888;28;20203;-83
2022/08/11 02:27:42;;;;;;;12.87;10.73;;;;;;;21.40;82.48;99091.78;5016579;28;20173;-82
2022/08/11 02:30:15;;;;;;;13.33;10.77;;;;;;;21.65;82.44;99127.69;5016526;28;20225;-82
2022/08/11 02:36:19;;;;;;;14.07;11.30;;;;;;;21.62;81.16;99089.06;5016499;28;20247;-82
2022/08/11 02:39:09;;;;;;;16.13;11.17;;;;;;;21.50;80.71;99070.25;4974574;28;20200;-83
2022/08/11 02:44:53;;;;;;;14.20;10.63;;;;;;;21.79;80.15;99130.19;4975534;28;20262;-84
2022/08/11 02:47:38;;;;;;;15.40;11.30;;;;;;;21.92;79.41;99143.94;4977456;28;20702;-84
2022/08/11 02:50:20;;;;;;;12.23;10.70;;;;;;;21.71;79.14;99125.09;4976127;28;20254;-82
2022/08/11 02:53:02;;;;;;;12.97;11.47;;;;;;;21.93;79.00;99145.63;4975449;28;20292;-83
2022/08/11 02:55:41;;;;;;;16.30;12.57;;;;;;;21.96;78.84;99143.03;4976175;28;20192;-83
2022/08/11 02:58:21;;;;;;;16.17;12.20;;;;;;;21.95;78.79;99146.50;4974655;28;20790;-82
2022/08/11 03:01:10;;;;;;;13.43;12.03;;;;;;;21.68;79.05;99112.22;4975255;28;20274;-82
2022/08/11 03:03:59;;;;;;;15.77;13.27;;;;;;;21.87;79.05;99148.22;4974607;28;20231;-84
2022/08/11 03:06:58;;;;;;;18.57;13.63;;;;;;;21.94;78.84;99155.06;4973807;28;20199;-83
2022/08/11 03:09:26;;;;;;;14.90;12.77;;;;;;;21.95;78.94;99152.47;4974776;28;20196;-85
2022/08/11 03:17:39;;;;;;;15.20;12.33;;;;;;;21.64;79.37;99128.59;5019607;28;20189;-84
2022/08/11 03:20:16;;;;;;;15.80;13.30;;;;;;;21.93;79.07;99159.38;5035913;28;20177;-84
2022/08/11 03:23:02;;;;;;;15.77;12.60;;;;;;;21.85;79.20;99162.81;5014991;28;20193;-83
2022/08/11 03:25:50;;;;;;;13.73;11.93;;;;;;;21.25;81.55;99146.75;4974899;28;20188;-84
2022/08/11 03:28:54;;;;;;;15.87;12.23;;;;;;;20.98;83.13;99136.50;4974326;28;20251;-84
2022/08/11 03:31:57;;;;;;;14.90;12.20;;;;;;;21.00;84.30;99155.38;4879280;29;20191;-84
2022/08/11 03:34:25;;;;;;;18.00;12.63;;;;;;;21.23;83.12;99148.50;4879522;29;20201;-84
2022/08/11 03:36:59;;;;;;;14.17;11.83;;;;;;;21.20;82.63;99158.81;4879733;29;20242;-83
2022/08/11 03:39:31;;;;;;;14.13;12.43;;;;;;;21.24;82.09;99154.47;4879074;29;20262;-83
2022/08/11 03:42:17;;;;;;;16.87;11.60;;;;;;;21.28;80.85;99125.28;4878744;29;20223;-83
2022/08/11 03:45:19;;;;;;;14.83;12.17;;;;;;;21.57;80.45;99156.94;4879170;29;20175;-82
2022/08/11 03:47:56;;;;;;;15.87;12.40;;;;;;;21.68;78.91;99137.13;4864022;29;20298;-84
2022/08/11 03:50:38;;;;;;;15.53;12.23;;;;;;;21.61;78.84;99150.91;4863555;29;20222;-83
2022/08/11 03:53:26;;;;;;;17.17;13.47;;;;;;;21.36;80.39;99162.19;4877381;29;20258;-84
2022/08/11 03:56:04;;;;;;;17.93;12.90;;;;;;;21.29;80.78;99160.50;4894642;29;20213;-84
2022/08/11 03:59:02;;;;;;;15.57;13.47;;;;;;;20.75;80.19;99040.47;4902216;29;20226;-83
2022/08/11 04:02:13;;;;;;;18.47;13.53;;;;;;;21.59;79.14;99153.47;4859124;29;20235;-84
2022/08/11 04:05:00;;;;;;;17.17;13.00;;;;;;;21.44;79.33;99163.00;4893945;29;20226;-83
2022/08/11 04:08:03;;;;;;;16.93;13.87;;;;;;;21.46;79.46;99156.13;4923785;28;20234;-83
2022/08/11 04:11:00;;;;;;;18.43;12.93;;;;;;;21.65;79.28;99165.47;4976072;28;20349;-84
2022/08/11 04:17:24;;;;;;;17.57;12.80;;;;;;;21.57;78.49;99170.69;4935926;29;20551;-83
2022/08/11 04:20:22;;;;;;;14.67;13.07;;;;;;;21.67;78.81;99166.34;4902515;29;20210;-83
2022/08/11 04:23:17;;;;;;;17.70;12.90;;;;;;;21.64;78.41;99156.94;4897334;29;20199;-84
2022/08/11 04:26:13;;;;;;;17.90;13.30;;;;;;;21.84;78.75;99169.69;4895222;29;20210;-82
2022/08/11 04:29:28;;;;;;;24.03;13.77;;;;;;;21.82;78.86;99165.41;4896954;29;20199;-84
2022/08/11 04:32:26;;;;;;;18.70;12.87;;;;;;;21.49;79.25;99162.13;4899094;29;20218;-84
2022/08/11 04:35:12;;;;;;;16.43;12.40;;;;;;;21.73;79.93;99179.19;4906485;29;20188;-84
2022/08/11 04:37:41;;;;;;;17.77;12.53;;;;;;;21.56;80.13;99179.25;4909975;29;20209;-84
2022/08/11 04:40:36;;;;;;;20.67;13.13;;;;;;;21.80;80.04;99180.03;4912338;29;20282;-83
2022/08/11 04:43:20;;;;;;;22.67;12.20;;;;;;;22.02;78.46;99176.50;4913217;29;20242;-83
2022/08/11 04:46:08;;;;;;;19.00;11.70;;;;;;;22.15;77.42;99171.28;4915624;29;20199;-83
2022/08/11 05:02:00;;;;;;;14.83;10.10;;;;;;;22.19;77.47;99159.22;5066069;28;20273;-83
2022/08/11 05:07:48;;;;;;;18.00;10.13;;;;;;;22.53;77.99;99168.41;5065877;28;20199;-86
2022/08/11 05:10:22;;;;;;;13.33;10.00;;;;;;;22.45;79.49;99162.44;5066866;28;20189;-84
2022/08/11 05:12:55;;;;;;;13.50;10.27;;;;;;;22.08;82.16;99174.75;5065417;28;20188;-83
2022/08/11 05:35:42;;;;;;;12.77;9.63;;;;;;;23.35;72.10;99165.91;5052555;28;20251;-81
2022/08/11 05:58:07;;;;;;;12.57;8.87;;;;;;;24.00;67.92;99153.94;5052997;28;20208;-84
2022/08/11 06:00:45;;;;;;;11.57;9.10;;;;;;;23.23;68.17;99041.22;5053619;28;20240;-84
2022/08/11 06:03:19;;;;;;;11.80;9.17;;;;;;;23.66;68.24;99119.91;5050254;28;20250;-84
2022/08/11 06:05:45;;;;;;;10.30;9.03;;;;;;;21.92;69.47;98878.44;5051697;28;20285;-83
2022/08/11 06:08:12;;;;;;;11.00;9.13;;;;;;;22.45;70.71;99015.41;5047496;28;20589;-83
2022/08/11 06:10:43;;;;;;;11.60;9.27;;;;;;;22.06;69.97;98907.47;5042463;28;20226;-84
2022/08/11 06:13:09;;;;;;;11.93;10.00;;;;;;;23.71;70.09;99171.53;5049791;28;20733;-84
2022/08/11 06:15:47;;;;;;;15.53;9.57;;;;;;;23.86;68.72;99167.03;5056711;28;20203;-84
2022/08/11 06:18:14;;;;;;;18.50;10.50;;;;;;;23.99;68.70;99165.13;5061145;28;20207;-83
2022/08/11 06:20:47;;;;;;;13.83;9.50;;;;;;;24.14;67.79;99141.69;5057359;28;20197;-82
2022/08/11 06:23:17;;;;;;;11.23;9.33;;;;;;;24.50;66.18;99161.78;5061756;28;20190;-84
2022/08/11 06:25:43;;;;;;;12.67;9.70;;;;;;;23.21;66.85;98947.41;5052831;28;20199;-86
2022/08/11 06:28:09;;;;;;;11.40;9.17;;;;;;;24.22;66.58;99087.22;5060546;28;20189;-86
2022/08/11 06:30:38;;;;;;;13.83;9.10;;;;;;;24.67;66.54;99158.09;5061870;28;20185;-84
2022/08/11 06:33:08;;;;;;;9.93;8.60;;;;;;;23.43;66.42;98969.50;5042964;28;20653;-85
2022/08/11 06:36:35;;;;;;;11.57;9.00;;;;;;;25.24;64.26;99152.72;5059503;28;20216;-84
2022/08/11 06:39:27;;;;;;;10.03;8.50;;;;;;;24.31;63.59;99053.44;4933968;29;20296;-82
2022/08/11 06:42:02;;;;;;;9.27;8.00;;;;;;;24.89;63.34;99118.84;4937997;29;20712;-82
2022/08/11 06:45:10;;;;;;;12.23;8.80;;;;;;;23.90;64.64;99005.78;4934087;29;20279;-85
2022/08/11 06:47:44;;;;;;;14.77;9.23;;;;;;;24.69;63.61;99057.94;4941919;29;20201;-86
2022/08/11 06:52:55;;;;;;;10.27;8.90;;;;;;;25.77;60.92;99153.41;4927466;28;20369;-84
2022/08/11 07:01:12;;;;;;;14.83;9.33;;;;;;;25.63;57.81;99005.03;4952232;29;20236;-85
2022/08/11 07:03:43;;;;;;;11.63;8.30;;;;;;;25.99;57.25;99113.13;4941771;29;20189;-84
2022/08/11 07:15:40;;;;;;;12.30;8.53;;;;;;;26.20;57.98;99158.53;4934480;29;20196;-83
2022/08/11 07:15:42;;;;;;;12.68;8.65;;;;;;;25.08;55.80;98845.59;4933379;29;20632;-86
2022/08/11 07:29:37;;;;;;;10.50;8.65;;;;;;;26.99;54.01;99089.88;4940941;29;20716;-86
2022/08/11 07:32:13;;;;;;;9.45;8.52;;;;;;;27.41;53.68;99103.47;4944235;29;20203;-83
2022/08/11 07:34:46;;;;;;;9.60;8.60;;;;;;;27.17;52.47;99044.31;4943513;29;20736;-85
2022/08/11 07:37:16;;;;;;;10.18;8.63;;;;;;;27.50;53.46;99165.59;4945241;29;21094;-83
2022/08/11 07:39:44;;;;;;;9.82;8.80;;;;;;;26.57;54.77;99096.19;4938996;29;20260;-84
2022/08/11 07:42:13;;;;;;;10.77;8.68;;;;;;;27.51;53.80;99123.97;4944263;29;20227;-86
2022/08/11 07:52:59;;;;;;;13.88;8.90;;;;;;;27.96;51.07;99050.59;5039939;28;20309;-85
2022/08/11 07:55:30;;;;;;;11.77;9.57;;;;;;;28.12;49.93;99006.72;5033742;28;20828;-84
2022/08/11 11:49:49;;;;;;;5.00;4.60;;;;;;;34.29;29.39;98849.25;4936842;23;20259;-81
2022/08/11 11:52:18;;;;;;;5.10;4.45;;;;;;;34.22;28.85;98882.13;4979362;28;20318;-80
2022/08/11 11:54:49;;;;;;;5.28;4.78;;;;;;;34.95;28.74;98992.41;4953289;28;20841;-79
2022/08/11 12:02:57;;;;;;;5.07;4.68;;;;;;;36.28;27.07;98992.59;4956577;28;20242;-81
2022/08/11 12:05:24;;;;;;;5.03;4.53;;;;;;;35.51;27.29;98970.44;4965177;28;20219;-80
2022/08/11 12:08:14;;;;;;;5.22;4.50;;;;;;;34.96;27.55;98820.44;4954909;28;20660;-84
2022/08/11 12:13:39;;;;;;;5.90;5.38;;;;;;;35.16;28.86;98877.06;4969161;28;20292;-81
2022/08/11 12:16:07;;;;;;;5.35;4.85;;;;;;;35.21;28.78;98730.22;4970497;28;20196;-80
2022/08/11 12:18:34;;;;;;;5.80;5.25;;;;;;;37.20;27.34;98983.50;4969445;28;21296;-81
2022/08/11 12:21:01;;;;;;;6.13;4.97;;;;;;;35.76;27.94;98795.81;4969627;28;20197;-80
2022/08/11 12:29:01;;;;;;;5.60;5.10;;;;;;;38.09;26.14;98878.22;4976541;28;20258;-80
2022/08/11 12:31:33;;;;;;;5.60;5.10;;;;;;;37.58;26.18;98862.69;4985269;28;20272;-80
2022/08/11 12:34:08;;;;;;;5.68;5.18;;;;;;;37.71;26.23;98873.19;4976652;28;20246;-81
2022/08/11 12:36:42;;;;;;;5.40;4.90;;;;;;;37.96;25.83;98898.63;4969677;28;20191;-81
2022/08/11 12:39:19;;;;;;;7.00;5.38;;;;;;;38.41;25.42;98969.19;4969347;28;20663;-80
2022/08/11 12:47:18;;;;;;;5.50;5.00;;;;;;;38.94;25.31;98976.47;4968545;28;20218;-81
2022/08/11 12:52:42;;;;;;;5.43;5.03;;;;;;;38.77;25.05;98916.06;4968088;28;20221;-80
2022/08/11 12:58:16;;;;;;;5.90;5.40;;;;;;;37.18;26.34;98969.56;4926933;29;20236;-82
2022/08/11 13:06:18;;;;;;;6.65;5.60;;;;;;;37.48;25.74;98816.78;4928422;29;20570;-80
2022/08/11 13:08:46;;;;;;;5.57;4.95;;;;;;;37.35;25.33;98775.53;4927165;29;20288;-81
2022/08/11 13:14:00;;;;;;;6.00;5.40;;;;;;;35.52;27.38;98882.56;4925896;29;20207;-81
2022/08/11 13:16:29;;;;;;;5.65;4.78;;;;;;;35.51;28.54;98938.81;4927248;29;20717;-82
2022/08/11 13:18:59;;;;;;;5.47;5.07;;;;;;;34.17;28.87;98771.19;4928964;29;20740;-82
2022/08/11 13:21:27;;;;;;;6.28;5.47;;;;;;;34.55;29.17;98793.28;4927536;29;20220;-80
2022/08/11 13:23:55;;;;;;;5.60;5.10;;;;;;;34.99;28.17;98750.97;4931166;29;20276;-80
2022/08/11 13:26:22;;;;;;;12.57;8.73;;;;;;;35.01;28.66;98785.06;4934040;29;20197;-80
2022/08/11 13:28:50;;;;;;;6.57;5.97;;;;;;;36.14;27.17;98722.00;4935060;29;20276;-82
2022/08/11 13:31:16;;;;;;;6.22;5.63;;;;;;;37.01;26.55;98859.03;4935507;29;20212;-79
2022/08/11 13:33:45;;;;;;;6.80;5.65;;;;;;;37.81;25.64;98924.41;4916020;29;20205;-80
2022/08/11 13:36:12;;;;;;;6.00;5.40;;;;;;;36.90;26.57;98917.03;4972007;28;20294;-81
2022/08/11 13:38:40;;;;;;;6.32;5.72;;;;;;;39.12;25.46;98946.84;4973464;28;20671;-81
2022/08/11 13:41:36;;;;;;;6.45;5.88;;;;;;;38.90;26.16;98945.88;4973252;28;20207;-79
2022/08/11 13:43:53;;;;;;;9.68;8.82;;;;;;;38.73;25.43;98927.84;4970984;28;20195;-81
2022/08/11 13:46:21;;;;;;;7.53;6.10;;;;;;;37.41;26.22;98789.13;4973419;28;20281;-80
2022/08/11 13:48:48;;;;;;;6.03;5.43;;;;;;;37.57;26.02;98739.47;4956082;28;20643;-81
2022/08/11 13:51:29;;;;;;;6.43;5.70;;;;;;;38.21;25.39;98806.69;4969456;28;20195;-80
2022/08/11 13:53:57;;;;;;;6.10;5.50;;;;;;;38.49;25.40;98857.44;4973041;28;20305;-81
2022/08/11 13:56:23;;;;;;;6.75;5.50;;;;;;;38.43;25.17;98805.03;4973465;28;20295;-80
2022/08/11 13:58:54;;;;;;;6.65;5.50;;;;;;;39.03;24.82;98741.84;4974325;28;20621;-80
2022/08/11 14:01:20;;;;;;;5.45;4.95;;;;;;;39.38;23.73;98749.50;4973958;28;20269;-80
2022/08/11 14:03:48;;;;;;;6.25;5.18;;;;;;;40.51;23.15;98930.72;4977182;28;20202;-80
2022/08/11 14:06:17;;;;;;;6.63;5.00;;;;;;;40.74;22.91;98949.94;4972951;28;20307;-80
2022/08/11 14:08:44;;;;;;;6.20;5.43;;;;;;;41.05;23.08;98943.63;4975531;28;20187;-79
2022/08/11 14:13:57;;;;;;;6.80;5.00;;;;;;;35.27;29.51;98889.53;4974151;28;20276;-81
2022/08/11 14:16:31;;;;;;;6.03;5.40;;;;;;;33.68;30.49;98690.09;4973933;28;20183;-82
2022/08/11 14:19:01;;;;;;;8.20;5.55;;;;;;;37.12;27.85;98939.16;4975421;28;20181;-80
2022/08/11 14:24:16;;;;;;;6.13;5.50;;;;;;;32.81;31.02;98700.59;4973341;28;20247;-78
2022/08/11 14:26:43;;;;;;;6.43;5.55;;;;;;;33.45;32.28;98905.06;4988934;28;20844;-80
2022/08/11 14:29:14;;;;;;;6.13;5.50;;;;;;;32.97;32.94;98914.72;4973713;28;20192;-80
2022/08/11 14:31:46;;;;;;;6.53;5.40;;;;;;;32.63;32.86;98917.47;4972592;28;20179;-82
2022/08/11 14:34:14;;;;;;;6.05;5.30;;;;;;;32.35;33.17;98917.22;4972010;28;20180;-77
2022/08/11 14:36:45;;;;;;;6.43;5.63;;;;;;;32.39;33.38;98897.75;4968138;28;20184;-77
2022/08/11 14:39:15;;;;;;;7.25;5.20;;;;;;;32.31;33.56;98923.53;4968974;28;20184;-78
2022/08/11 14:47:42;;;;;;;6.97;5.72;;;;;;;32.24;34.08;98937.88;4970545;28;20679;-78
2022/08/11 14:50:12;;;;;;;7.88;5.53;;;;;;;32.97;32.53;98946.19;4941537;28;20329;-79
2022/08/11 14:52:59;;;;;;;6.45;5.50;;;;;;;35.17;29.63;98941.09;4952144;28;20266;-76
2022/08/11 14:58:17;;;;;;;5.22;4.78;;;;;;;34.00;30.29;98939.50;4968432;28;20575;-77
2022/08/11 15:00:43;;;;;;;5.70;5.20;;;;;;;32.10;31.62;98815.47;4966688;28;20246;-80
2022/08/11 15:03:14;;;;;;;6.13;5.28;;;;;;;32.41;32.70;98930.00;4968426;28;20191;-81
2022/08/11 15:05:50;;;;;;;7.25;4.38;;;;;;;32.35;32.31;98933.78;4967110;28;20327;-77
2022/08/11 15:08:17;;;;;;;6.57;4.40;;;;;;;31.81;32.88;98921.69;4969300;28;20583;-78
2022/08/11 15:10:45;;;;;;;5.00;4.03;;;;;;;31.87;32.86;98937.09;4969751;28;20183;-80
2022/08/11 15:13:11;;;;;;;6.70;3.55;;;;;;;30.76;33.41;98860.50;4969564;28;20191;-79
2022/08/11 15:18:24;;;;;;;3.78;3.38;;;;;;;31.04;33.53;98929.84;4969241;28;20194;-80
2022/08/11 15:37:34;;;;;;;5.50;4.00;;;;;;;29.19;36.03;98747.34;4969223;28;20261;-79
2022/08/11 15:45:49;;;;;;;7.43;3.97;;;;;;;30.02;36.86;98926.50;4966210;28;20226;-79
2022/08/11 15:48:35;;;;;;;6.07;3.90;;;;;;;29.90;37.10;98928.78;4974558;28;20187;-79
2022/08/11 15:51:15;;;;;;;5.18;3.60;;;;;;;28.48;36.91;98705.94;4959095;28;20709;-79
2022/08/11 15:53:53;;;;;;;4.35;3.70;;;;;;;28.84;37.38;98813.97;4969203;28;20189;-79
2022/08/11 15:56:22;;;;;;;3.78;3.47;;;;;;;29.39;37.29;98887.38;4967892;28;20733;-79
2022/08/11 16:04:25;;;;;;;6.13;4.30;;;;;;;28.70;42.21;98969.13;4969766;28;20198;-79
2022/08/11 16:06:52;;;;;;;5.75;4.20;;;;;;;28.49;43.11;98974.16;4968005;28;20191;-79
2022/08/11 16:09:46;;;;;;;7.30;4.05;;;;;;;27.50;43.38;98838.75;4968389;28;20255;-78
2022/08/11 16:12:15;;;;;;;4.60;3.95;;;;;;;27.51;44.52;98913.28;4969061;28;20230;-78
2022/08/11 16:17:39;;;;;;;4.63;3.83;;;;;;;27.61;45.28;98991.03;4970335;28;20690;-79
2022/08/11 16:20:07;;;;;;;4.57;3.45;;;;;;;27.72;45.56;99021.00;4970244;28;20188;-78
2022/08/11 16:22:40;;;;;;;15.70;8.32;;;;;;;27.71;45.58;99047.06;4970840;28;20718;-78
2022/08/11 16:25:09;;;;;;;7.07;4.93;;;;;;;26.62;49.44;98925.50;4976776;28;20236;-78
2022/08/11 16:27:40;;;;;;;7.95;5.80;;;;;;;25.12;61.89;98937.06;4985939;28;20258;-78
2022/08/11 16:30:07;;;;;;;9.60;6.53;;;;;;;25.10;67.58;99050.25;4969708;28;20176;-79
2022/08/11 16:32:38;;;;;;;7.47;5.43;;;;;;;24.17;70.62;98985.56;4968935;28;20190;-80
2022/08/11 16:40:51;;;;;;;9.93;6.50;;;;;;;23.25;83.44;99054.97;4968682;28;20576;-78
2022/08/11 16:48:53;;;;;;;10.00;7.07;;;;;;;21.55;100.00;99022.13;4939573;28;20247;-77
2022/08/11 16:51:20;;;;;;;12.10;8.00;;;;;;;21.44;100.00;99035.06;4949366;28;20232;-77
2022/08/11 16:53:48;;;;;;;13.83;9.27;;;;;;;21.23;100.00;99062.66;4966408;28;20187;-77
2022/08/11 16:56:33;;;;;;;13.53;9.63;;;;;;;21.22;100.00;99078.97;4965714;28;20195;-77
2022/08/11 16:59:16;;;;;;;11.17;8.87;;;;;;;21.01;100.00;99101.28;4965887;28;20196;-77
2022/08/11 17:01:51;;;;;;;15.10;10.13;;;;;;;20.58;100.00;99064.53;4964870;28;20208;-76
2022/08/11 17:18:38;;;;;;;17.20;11.07;;;;;;;20.95;100.00;99141.66;4967079;28;20202;-77
2022/08/11 17:21:01;;;;;;;15.13;10.57;;;;;;;21.05;100.00;99138.19;4954753;28;20188;-78
2022/08/11 17:23:46;;;;;;;12.60;10.37;;;;;;;21.14;100.00;99141.66;4967395;28;20200;-78
2022/08/11 17:29:25;;;;;;;9.90;8.50;;;;;;;21.07;100.00;99146.78;4968021;28;20614;-78
2022/08/11 17:37:27;;;;;;;10.87;8.60;;;;;;;21.37;100.00;99138.16;4967025;28;20187;-79
2022/08/11 17:39:54;;;;;;;11.40;8.50;;;;;;;21.37;100.00;99138.97;4966980;28;20270;-76
2022/08/11 17:50:40;;;;;;;11.03;8.03;;;;;;;21.09;100.00;98988.94;4955718;28;20255;-78
2022/08/11 18:01:24;;;;;;;9.00;7.50;;;;;;;22.34;100.00;99066.22;4969038;28;20191;-79
2022/08/11 18:03:53;;;;;;;7.63;6.83;;;;;;;22.36;100.00;99061.09;4978961;28;20176;-80
2022/08/11 18:06:20;;;;;;;9.33;7.10;;;;;;;22.56;100.00;99082.38;4985853;28;20263;-79
